Feldbach, Austria
Current Conditions -  °F | °C
As of 8:50 AM on Monday 22 Dec 2014 (Local Time) from LOWG Reporting Station
Haze Haze  
Wind Chill: 25°   Ceiling: Unl
Heat Index: 25°   Visibility: 6mi
Dew Point: 25°   Wind: 2mph
Humidity: 100%   Direction: NA
Pressure: 30.21"   Gusts: NA
Location:  46.96°N, 15.89°E
Report Text: LOWG 220650Z VRB02KT 9999 3000S BR FEW180 SCT250 M04/M04 Q1023 NOSIG
Loading
Personal Weather Stations






























Interactive Weather Map New forecast layout! Learn more

10-Day Weather Forecast

Advertisements
Track Severe Weather on mobile